createdAt,value
2023-02-22T00:05:02.370Z,21.83
2023-02-22T00:10:09.483Z,20.95
2023-02-22T00:15:14.596Z,22.35
2023-02-22T00:20:20.871Z,22.77
2023-02-22T00:25:25.196Z,22.48
2023-02-22T00:30:30.416Z,22.48
2023-02-22T00:35:33.152Z,20.80
2023-02-22T00:40:36.083Z,22.75
2023-02-22T00:45:38.788Z,24.98
2023-02-22T00:50:41.639Z,23.58
2023-02-22T00:55:44.351Z,23.70
2023-02-22T01:00:47.556Z,23.02
2023-02-22T01:05:50.462Z,21.95
2023-02-22T01:10:53.327Z,23.10
2023-02-22T01:15:57.136Z,23.48
2023-02-22T01:21:02.087Z,25.55
2023-02-22T01:26:06.307Z,24.40
2023-02-22T01:31:09.758Z,26.30
2023-02-22T01:36:12.655Z,24.02
2023-02-22T01:41:18.744Z,23.15
2023-02-22T01:46:27.025Z,24.05
2023-02-22T01:51:38.164Z,20.55
2023-02-22T01:56:46.732Z,22.33
2023-02-22T02:01:49.637Z,23.83
2023-02-22T02:06:54.145Z,21.42
2023-02-22T02:12:01.124Z,23.80
2023-02-22T02:17:07.290Z,21.67
2023-02-22T02:22:31.015Z,21.95
2023-02-22T02:28:03.334Z,20.70
2023-02-22T02:33:27.060Z,19.27
2023-02-22T02:38:47.834Z,18.23
2023-02-22T02:44:02.519Z,19.35
2023-02-22T02:49:25.825Z,19.02
2023-02-22T02:54:28.612Z,21.13
2023-02-22T02:59:39.614Z,20.83
2023-02-22T03:05:02.646Z,19.48
2023-02-22T03:10:44.463Z,18.33
2023-02-22T03:16:12.158Z,19.45
2023-02-22T03:21:42.021Z,19.35
2023-02-22T03:26:59.844Z,19.20
2023-02-22T03:32:04.772Z,19.83
2023-02-22T03:37:20.376Z,19.25
2023-02-22T03:42:36.205Z,17.52
2023-02-22T03:47:44.727Z,20.90
2023-02-22T03:52:48.275Z,18.17
2023-02-22T03:58:00.317Z,20.90
2023-02-22T04:03:05.970Z,19.90
2023-02-22T04:08:08.786Z,18.95
2023-02-22T04:13:14.931Z,20.40
2023-02-22T04:18:21.968Z,18.00
2023-02-22T04:23:27.322Z,18.33
2023-02-22T04:28:36.454Z,16.85
2023-02-22T04:33:59.542Z,18.08
2023-02-22T04:39:06.239Z,18.45
2023-02-22T04:44:09.225Z,19.60
2023-02-22T04:49:11.994Z,19.55
2023-02-22T04:54:17.954Z,18.10
2023-02-22T04:59:23.013Z,16.63
2023-02-22T05:04:31.515Z,16.95
2023-02-22T05:09:34.501Z,17.15
2023-02-22T05:14:37.450Z,15.27
2023-02-22T05:19:40.205Z,14.75
2023-02-22T05:24:44.256Z,17.20
2023-02-22T05:29:50.023Z,16.75
2023-02-22T05:34:52.762Z,18.38
2023-02-22T05:39:56.081Z,19.00
2023-02-22T05:45:03.256Z,16.20
2023-02-22T05:50:07.156Z,16.63
2023-02-22T05:55:10.947Z,17.02
2023-02-22T06:00:29.711Z,16.30
2023-02-22T06:05:32.995Z,15.77
2023-02-22T06:10:36.818Z,14.93
2023-02-22T06:15:54.950Z,13.30
2023-02-22T06:20:58.702Z,12.40
2023-02-22T06:26:01.514Z,12.65
2023-02-22T06:31:07.192Z,12.93
2023-02-22T06:36:10.403Z,12.70
2023-02-22T06:41:13.301Z,12.85
2023-02-22T06:46:16.060Z,14.43
2023-02-22T06:51:18.993Z,14.38
2023-02-22T06:56:22.206Z,16.38
2023-02-22T07:01:24.890Z,15.05
2023-02-22T07:06:27.545Z,16.13
2023-02-22T07:11:30.394Z,16.35
2023-02-22T07:16:34.152Z,15.38
2023-02-22T07:21:36.856Z,13.65
2023-02-22T07:26:43.138Z,15.80
2023-02-22T07:31:47.341Z,16.45
2023-02-22T07:36:50.043Z,17.52
2023-02-22T07:41:52.707Z,15.02
2023-02-22T07:46:59.590Z,17.02
2023-02-22T07:52:02.289Z,17.13
2023-02-22T07:57:05.248Z,16.35
2023-02-22T08:02:16.494Z,17.25
2023-02-22T08:07:19.096Z,16.15
2023-02-22T08:12:21.708Z,17.40
2023-02-22T08:17:24.451Z,14.90
2023-02-22T08:22:30.025Z,14.65
2023-02-22T08:27:34.287Z,17.40
2023-02-22T08:32:37.068Z,16.17
2023-02-22T08:37:52.866Z,16.35
2023-02-22T08:42:55.506Z,18.45
2023-02-22T08:47:59.026Z,21.17
2023-02-22T08:53:04.556Z,20.38
2023-02-22T08:58:10.850Z,20.48
2023-02-22T09:03:15.218Z,19.35
2023-02-22T09:08:18.359Z,19.67
2023-02-22T09:13:21.066Z,19.23
2023-02-22T09:18:25.527Z,19.58
2023-02-22T09:23:28.365Z,17.92
2023-02-22T09:28:32.457Z,19.10
2023-02-22T09:33:35.130Z,18.58
2023-02-22T09:38:37.872Z,14.93
2023-02-22T09:44:15.813Z,15.50
2023-02-22T09:49:59.958Z,17.35
2023-02-22T09:55:26.720Z,15.48
2023-02-22T10:00:34.341Z,18.48
2023-02-22T10:05:42.132Z,20.27
2023-02-22T10:10:52.895Z,21.50
2023-02-22T10:16:01.614Z,18.65
2023-02-22T10:21:11.175Z,17.75
2023-02-22T10:26:32.321Z,16.65
2023-02-22T10:31:41.142Z,17.92
2023-02-22T10:36:48.969Z,18.23
2023-02-22T10:41:54.692Z,17.92
2023-02-22T10:47:00.003Z,18.48
2023-02-22T10:57:06.896Z,15.18
2023-02-22T11:02:15.752Z,17.40
2023-02-22T11:07:38.667Z,17.27
2023-02-22T11:12:45.209Z,17.08
2023-02-22T11:17:49.706Z,16.77
2023-02-22T11:22:58.720Z,18.27
2023-02-22T11:28:15.834Z,18.98
2023-02-22T11:33:24.153Z,18.90
2023-02-22T11:38:29.988Z,19.13
2023-02-22T11:43:32.917Z,17.48
2023-02-22T11:48:39.550Z,20.15
2023-02-22T11:53:45.459Z,20.20
2023-02-22T11:58:54.517Z,20.85
2023-02-22T12:04:16.233Z,19.55
2023-02-22T12:09:34.352Z,17.92
2023-02-22T12:15:03.129Z,18.25
2023-02-22T12:20:28.053Z,16.75
2023-02-22T12:25:39.186Z,17.75
2023-02-22T12:30:45.131Z,20.73
2023-02-22T12:35:58.987Z,18.27
2023-02-22T12:41:14.333Z,19.70
2023-02-22T12:46:31.367Z,19.10
2023-02-22T12:51:52.220Z,19.95
2023-02-22T12:57:04.719Z,18.65
2023-02-22T13:07:46.483Z,20.58
2023-02-22T13:12:58.116Z,20.15
2023-02-22T13:18:26.063Z,22.67
2023-02-22T13:23:41.343Z,21.98
2023-02-22T13:28:58.599Z,24.02
2023-02-22T13:34:13.518Z,29.77
2023-02-22T13:39:29.975Z,32.70
2023-02-22T13:44:38.468Z,32.00
2023-02-22T13:50:00.309Z,32.58
2023-02-22T13:55:11.382Z,32.92
2023-02-22T14:00:15.442Z,33.22
2023-02-22T14:05:51.695Z,37.65
2023-02-22T14:10:56.331Z,35.80
2023-02-22T14:16:05.159Z,35.38
2023-02-22T14:21:13.088Z,30.85
2023-02-22T14:26:35.443Z,29.90
2023-02-22T14:32:02.544Z,26.50
2023-02-22T14:37:27.729Z,24.98
2023-02-22T14:42:35.638Z,21.83
2023-02-22T14:48:01.456Z,21.70
2023-02-22T14:53:24.390Z,20.65
2023-02-22T14:58:32.519Z,22.02
2023-02-22T15:03:38.330Z,22.30
2023-02-22T15:08:42.613Z,25.10
2023-02-22T15:13:54.452Z,23.27
2023-02-22T15:19:01.182Z,22.77
2023-02-22T15:24:06.935Z,22.23
2023-02-22T15:29:16.502Z,22.58
2023-02-22T15:34:24.844Z,23.50
2023-02-22T15:39:30.271Z,20.77
2023-02-22T15:44:41.230Z,21.42
2023-02-22T15:49:44.493Z,19.05
2023-02-22T15:54:50.889Z,20.42
2023-02-22T15:59:56.683Z,24.15
2023-02-22T16:05:08.983Z,24.30
2023-02-22T16:10:31.085Z,24.70
2023-02-22T16:15:34.217Z,25.85
2023-02-22T16:20:37.290Z,24.70
2023-02-22T16:25:40.200Z,23.20
2023-02-22T16:30:43.555Z,21.20
2023-02-22T16:35:52.489Z,27.98
2023-02-22T16:40:56.699Z,28.38
2023-02-22T16:46:02.007Z,26.70
2023-02-22T16:51:19.067Z,30.85
2023-02-22T16:56:30.840Z,27.73
2023-02-22T17:01:35.259Z,31.15
2023-02-22T17:06:38.232Z,27.23
2023-02-22T17:11:41.036Z,25.40
2023-02-22T17:16:43.850Z,28.65
2023-02-22T17:21:46.626Z,24.33
2023-02-22T17:26:50.311Z,28.77
2023-02-22T17:31:53.244Z,28.55
2023-02-22T17:36:55.945Z,26.05
2023-02-22T17:41:59.285Z,27.35
2023-02-22T17:47:02.040Z,27.40
2023-02-22T17:52:06.643Z,24.95
2023-02-22T18:02:11.971Z,27.92
2023-02-22T18:07:16.769Z,28.23
2023-02-22T18:17:23.139Z,24.48
2023-02-22T18:22:25.964Z,28.58
2023-02-22T18:27:30.486Z,25.77
2023-02-22T18:32:33.847Z,25.70
2023-02-22T18:37:36.630Z,31.73
2023-02-22T18:42:40.166Z,23.73
2023-02-22T18:47:44.066Z,24.67
2023-02-22T18:52:47.253Z,24.43
2023-02-22T18:57:53.238Z,27.35
2023-02-22T19:02:58.077Z,27.27
2023-02-22T19:13:04.216Z,24.63
2023-02-22T19:18:07.461Z,31.58
2023-02-22T19:23:11.104Z,25.35
2023-02-22T19:28:16.401Z,28.97
2023-02-22T19:33:19.068Z,26.90
2023-02-22T19:38:21.852Z,27.50
2023-02-22T19:43:24.561Z,23.15
2023-02-22T19:48:27.243Z,26.33
2023-02-22T19:53:30.638Z,29.75
2023-02-22T19:58:37.048Z,24.15
2023-02-22T20:03:40.091Z,27.80
2023-02-22T20:08:42.859Z,20.08
2023-02-22T20:13:46.039Z,27.15
2023-02-22T20:18:49.319Z,24.10
2023-02-22T20:23:57.255Z,24.77
2023-02-22T20:29:00.744Z,26.98
2023-02-22T20:34:06.483Z,18.45
2023-02-22T20:39:13.680Z,23.83
2023-02-22T20:44:18.329Z,24.45
2023-02-22T20:49:21.728Z,20.33
2023-02-22T20:54:24.420Z,23.70
2023-02-22T20:59:29.377Z,22.38
2023-02-22T21:04:33.516Z,19.70
2023-02-22T21:09:37.532Z,21.40
2023-02-22T21:14:41.922Z,27.50
2023-02-22T21:19:44.812Z,25.90
2023-02-22T21:24:49.369Z,19.00
2023-02-22T21:29:52.882Z,23.77
2023-02-22T21:34:55.601Z,19.83
2023-02-22T21:39:59.419Z,23.77
2023-02-22T21:45:02.093Z,22.73
2023-02-22T21:50:08.144Z,22.45
2023-02-22T21:55:11.168Z,21.25
2023-02-22T22:00:19.285Z,23.25
2023-02-22T22:05:33.970Z,21.20
2023-02-22T22:10:36.825Z,24.73
2023-02-22T22:15:40.296Z,23.70
2023-02-22T22:20:45.086Z,16.45
2023-02-22T22:25:51.425Z,22.80
2023-02-22T22:30:54.325Z,21.77
2023-02-22T22:35:59.948Z,21.88
2023-02-22T22:41:05.983Z,23.02
2023-02-22T22:46:09.362Z,15.90
2023-02-22T22:51:14.983Z,19.83
2023-02-22T22:56:21.571Z,15.07
2023-02-22T23:01:28.206Z,16.92
2023-02-22T23:06:33.412Z,21.02
2023-02-22T23:11:36.545Z,16.92
2023-02-22T23:16:40.337Z,20.67
2023-02-22T23:21:46.582Z,17.07
2023-02-22T23:26:49.394Z,21.35
2023-02-22T23:31:54.832Z,18.65
2023-02-22T23:36:58.204Z,18.10
2023-02-22T23:42:01.190Z,19.98
2023-02-22T23:47:04.483Z,19.75
2023-02-22T23:52:08.888Z,20.23
2023-02-22T23:57:11.721Z,14.93
